createdAt,value
2022-11-08T00:00:29.084Z,13.03
2022-11-08T00:01:29.146Z,13.01
2022-11-08T00:02:29.174Z,13.00
2022-11-08T00:03:29.084Z,12.96
2022-11-08T00:04:29.035Z,12.93
2022-11-08T00:05:29.047Z,12.90
2022-11-08T00:06:29.025Z,12.87
2022-11-08T00:07:29.014Z,12.83
2022-11-08T00:08:29.005Z,12.79
2022-11-08T00:09:28.987Z,12.77
2022-11-08T00:10:28.980Z,12.75
2022-11-08T00:11:28.998Z,12.71
2022-11-08T00:12:28.949Z,12.70
2022-11-08T00:13:28.947Z,12.68
2022-11-08T00:14:28.936Z,12.68
2022-11-08T00:15:28.922Z,12.67
2022-11-08T00:16:28.930Z,12.71
2022-11-08T00:17:28.899Z,12.71
2022-11-08T00:18:28.887Z,12.71
2022-11-08T00:19:28.879Z,12.68
2022-11-08T00:20:28.859Z,12.67
2022-11-08T00:21:28.869Z,12.64
2022-11-08T00:22:28.855Z,12.62
2022-11-08T00:23:28.838Z,12.62
2022-11-08T00:24:28.818Z,12.60
2022-11-08T00:25:28.868Z,12.56
2022-11-08T00:26:28.818Z,12.53
2022-11-08T00:27:28.790Z,12.50
2022-11-08T00:28:28.779Z,12.46
2022-11-08T00:29:28.771Z,12.45
2022-11-08T00:30:28.749Z,12.42
2022-11-08T00:31:28.760Z,12.41
2022-11-08T00:32:28.733Z,12.42
2022-11-08T00:33:28.723Z,12.46
2022-11-08T00:34:28.743Z,12.47
2022-11-08T00:35:28.701Z,12.47
2022-11-08T00:36:28.701Z,12.50
2022-11-08T00:37:28.682Z,12.54
2022-11-08T00:38:28.677Z,12.59
2022-11-08T00:39:28.772Z,12.62
2022-11-08T00:40:28.654Z,12.64
2022-11-08T00:41:28.774Z,12.67
2022-11-08T00:42:28.623Z,12.70
2022-11-08T00:43:28.615Z,12.70
2022-11-08T00:44:28.603Z,12.75
2022-11-08T00:45:28.597Z,12.79
2022-11-08T00:46:28.595Z,12.83
2022-11-08T00:47:28.633Z,12.87
2022-11-08T00:48:28.553Z,12.89
2022-11-08T00:49:28.697Z,12.93
2022-11-08T00:50:28.535Z,12.95
2022-11-08T00:51:28.536Z,12.95
2022-11-08T00:52:28.514Z,12.96
2022-11-08T00:53:28.506Z,12.96
2022-11-08T00:54:28.488Z,12.95
2022-11-08T00:55:28.487Z,12.96
2022-11-08T00:56:28.486Z,13.01
2022-11-08T00:57:41.123Z,13.03
2022-11-08T00:58:29.788Z,13.01
2022-11-08T00:59:28.445Z,12.97
2022-11-08T01:00:28.417Z,12.97
2022-11-08T01:01:28.511Z,13.00
2022-11-08T01:02:28.501Z,13.01
2022-11-08T01:03:28.399Z,12.97
2022-11-08T01:04:28.392Z,12.96
2022-11-08T01:05:28.389Z,12.96
2022-11-08T01:06:28.368Z,12.93
2022-11-08T01:07:28.359Z,12.92
2022-11-08T01:08:28.346Z,12.89
2022-11-08T01:09:28.347Z,12.90
2022-11-08T01:10:28.318Z,12.89
2022-11-08T01:11:28.330Z,12.87
2022-11-08T01:12:28.292Z,12.86
2022-11-08T01:13:28.291Z,12.85
2022-11-08T01:14:28.273Z,12.83
2022-11-08T01:15:28.364Z,12.82
2022-11-08T01:16:28.273Z,12.83
2022-11-08T01:17:28.249Z,12.85
2022-11-08T01:18:28.229Z,12.85
2022-11-08T01:19:28.235Z,12.83
2022-11-08T01:20:28.217Z,12.83
2022-11-08T01:21:28.211Z,12.85
2022-11-08T01:22:28.191Z,12.85
2022-11-08T01:23:28.273Z,12.89
2022-11-08T01:24:28.205Z,12.90
2022-11-08T01:25:28.156Z,12.90
2022-11-08T01:26:28.152Z,12.92
2022-11-08T01:27:28.133Z,12.90
2022-11-08T01:28:28.123Z,12.90
2022-11-08T01:29:28.122Z,12.89
2022-11-08T01:30:28.095Z,12.87
2022-11-08T01:31:28.105Z,12.86
2022-11-08T01:32:28.085Z,12.87
2022-11-08T01:33:28.095Z,12.87
2022-11-08T01:34:28.059Z,12.87
2022-11-08T01:35:28.045Z,12.87
2022-11-08T01:36:28.056Z,12.85
2022-11-08T01:37:28.025Z,12.83
2022-11-08T01:38:28.045Z,12.85
2022-11-08T01:39:28.003Z,12.85
2022-11-08T01:40:28.001Z,12.82
2022-11-08T01:41:27.991Z,12.83
2022-11-08T01:42:27.967Z,12.83
2022-11-08T01:43:27.958Z,12.83
2022-11-08T01:44:27.955Z,12.83
2022-11-08T01:45:27.927Z,12.82
2022-11-08T01:46:27.949Z,12.82
2022-11-08T01:47:27.927Z,12.78
2022-11-08T01:48:27.905Z,12.75
2022-11-08T01:49:27.888Z,12.72
2022-11-08T01:50:27.889Z,12.70
2022-11-08T01:51:27.888Z,12.64
2022-11-08T01:52:27.878Z,12.60
2022-11-08T01:53:27.857Z,12.56
2022-11-08T01:54:27.839Z,12.53
2022-11-08T01:55:27.847Z,12.50
2022-11-08T01:56:27.831Z,12.45
2022-11-08T01:57:27.799Z,12.42
2022-11-08T01:58:27.790Z,12.41
2022-11-08T01:59:27.787Z,12.35
2022-11-08T02:00:27.770Z,12.32
2022-11-08T02:01:27.877Z,12.31
2022-11-08T02:02:27.802Z,12.27
2022-11-08T02:03:27.731Z,12.23
2022-11-08T02:04:27.740Z,12.21
2022-11-08T02:05:27.720Z,12.17
2022-11-08T02:06:27.714Z,12.16
2022-11-08T02:07:27.713Z,12.13
2022-11-08T02:08:27.693Z,12.13
2022-11-08T02:09:27.672Z,12.10
2022-11-08T02:10:27.671Z,12.09
2022-11-08T02:11:27.673Z,12.07
2022-11-08T02:12:27.641Z,12.02
2022-11-08T02:13:27.623Z,12.01
2022-11-08T02:14:27.624Z,12.01
2022-11-08T02:15:27.608Z,12.01
2022-11-08T02:16:27.620Z,11.98
2022-11-08T02:17:27.582Z,11.95
2022-11-08T02:18:27.584Z,11.90
2022-11-08T02:19:27.563Z,11.86
2022-11-08T02:20:27.554Z,11.83
2022-11-08T02:21:27.545Z,11.85
2022-11-08T02:22:27.534Z,11.82
2022-11-08T02:23:27.524Z,11.79
2022-11-08T02:24:27.524Z,11.76
2022-11-08T02:25:27.497Z,11.73
2022-11-08T02:26:27.505Z,11.70
2022-11-08T02:27:27.476Z,11.67
2022-11-08T02:28:27.485Z,11.70
2022-11-08T02:29:27.461Z,11.72
2022-11-08T02:30:27.448Z,11.69
2022-11-08T02:31:27.447Z,11.67
2022-11-08T02:32:27.446Z,11.64
2022-11-08T02:33:27.457Z,11.61
2022-11-08T02:34:27.408Z,11.60
2022-11-08T02:35:27.398Z,11.62
2022-11-08T02:36:27.396Z,11.65
2022-11-08T02:37:27.367Z,11.64
2022-11-08T02:38:27.385Z,11.61
2022-11-08T02:39:27.345Z,11.62
2022-11-08T02:40:27.338Z,11.64
2022-11-08T02:41:27.338Z,11.62
2022-11-08T02:42:27.320Z,11.62
2022-11-08T02:43:27.310Z,11.64
2022-11-08T02:44:27.299Z,11.67
2022-11-08T02:45:27.279Z,11.75
2022-11-08T02:46:27.290Z,11.79
2022-11-08T02:47:27.273Z,11.82
2022-11-08T02:48:27.259Z,11.79
2022-11-08T02:49:27.240Z,11.75
2022-11-08T02:50:27.302Z,11.70
2022-11-08T02:51:27.219Z,11.69
2022-11-08T02:52:27.214Z,11.70
2022-11-08T02:53:27.199Z,11.73
2022-11-08T02:54:27.186Z,11.70
2022-11-08T02:55:27.180Z,11.70
2022-11-08T02:56:27.190Z,11.73
2022-11-08T02:57:27.150Z,11.70
2022-11-08T02:58:28.123Z,11.72
2022-11-08T02:59:27.130Z,11.69
2022-11-08T03:00:27.811Z,11.67
2022-11-08T03:01:27.236Z,11.65
2022-11-08T03:02:27.217Z,11.70
2022-11-08T03:03:27.091Z,11.75
2022-11-08T03:04:27.093Z,11.72
2022-11-08T03:05:27.071Z,11.70
2022-11-08T03:06:27.243Z,11.64
2022-11-08T03:07:27.041Z,11.69
2022-11-08T03:08:27.045Z,11.70
2022-11-08T03:09:27.022Z,11.69
2022-11-08T03:10:27.031Z,11.67
2022-11-08T03:11:27.012Z,11.67
2022-11-08T03:12:26.991Z,11.67
2022-11-08T03:13:26.989Z,11.65
2022-11-08T03:14:27.115Z,11.69
2022-11-08T03:15:26.955Z,11.69
2022-11-08T03:16:26.962Z,11.70
2022-11-08T03:17:26.942Z,11.70
2022-11-08T03:18:26.925Z,11.70
2022-11-08T03:19:26.965Z,11.69
2022-11-08T03:20:32.200Z,11.67
2022-11-08T03:21:27.904Z,11.67
2022-11-08T03:22:26.974Z,11.65
2022-11-08T03:23:26.877Z,11.64
2022-11-08T03:24:26.965Z,11.61
2022-11-08T03:25:26.854Z,11.60
2022-11-08T03:26:26.864Z,11.60
2022-11-08T03:27:26.825Z,11.60
2022-11-08T03:28:27.027Z,11.60
2022-11-08T03:29:26.806Z,11.57
2022-11-08T03:30:26.819Z,11.54
2022-11-08T03:31:26.806Z,11.55
2022-11-08T03:32:26.776Z,11.54
2022-11-08T03:33:26.756Z,11.54
2022-11-08T03:34:26.767Z,11.54
2022-11-08T03:35:26.757Z,11.55
2022-11-08T03:36:26.737Z,11.52
2022-11-08T03:37:26.726Z,11.51
2022-11-08T03:38:26.736Z,11.52
2022-11-08T03:39:26.700Z,11.57
2022-11-08T03:40:26.710Z,11.55
2022-11-08T03:41:26.688Z,11.52
2022-11-08T03:42:26.670Z,11.54
2022-11-08T03:43:26.669Z,11.51
2022-11-08T03:44:26.656Z,11.51
2022-11-08T03:45:26.639Z,11.49
2022-11-08T03:46:26.781Z,11.52
2022-11-08T03:47:26.619Z,11.55
2022-11-08T03:48:26.608Z,11.55
2022-11-08T03:49:26.600Z,11.54
2022-11-08T03:50:26.580Z,11.54
2022-11-08T03:51:26.579Z,11.55
2022-11-08T03:52:26.572Z,11.54
2022-11-08T03:53:26.590Z,11.52
2022-11-08T03:54:26.659Z,11.57
2022-11-08T03:55:26.530Z,11.60
2022-11-08T03:56:26.530Z,11.57
2022-11-08T03:57:26.513Z,11.55
2022-11-08T03:58:26.491Z,11.57
2022-11-08T03:59:26.492Z,11.58
2022-11-08T04:00:26.490Z,11.61
2022-11-08T04:01:26.598Z,11.62
2022-11-08T04:02:26.712Z,11.64
2022-11-08T04:03:26.443Z,11.61
2022-11-08T04:04:26.433Z,11.61
2022-11-08T04:05:26.453Z,11.62
2022-11-08T04:06:26.402Z,11.62
2022-11-08T04:07:26.402Z,11.62
2022-11-08T04:08:26.396Z,11.60
2022-11-08T04:09:26.375Z,11.58
2022-11-08T04:10:26.482Z,11.61
2022-11-08T04:11:26.364Z,11.62
2022-11-08T04:12:26.438Z,11.57
2022-11-08T04:13:26.347Z,11.54
2022-11-08T04:14:26.335Z,11.54
2022-11-08T04:15:26.314Z,11.57
2022-11-08T04:16:26.354Z,11.58
2022-11-08T04:17:26.296Z,11.60
2022-11-08T04:18:26.275Z,11.54
2022-11-08T04:19:26.276Z,11.49
2022-11-08T04:20:26.264Z,11.49
2022-11-08T04:21:26.276Z,11.47
2022-11-08T04:22:26.229Z,11.49
2022-11-08T04:23:26.226Z,11.47
2022-11-08T04:24:26.216Z,11.46
2022-11-08T04:25:28.936Z,11.51
2022-11-08T04:26:27.199Z,11.49
2022-11-08T04:27:26.177Z,11.47
2022-11-08T04:28:26.178Z,11.47
2022-11-08T04:29:26.168Z,11.46
2022-11-08T04:30:26.150Z,11.44
2022-11-08T04:31:26.159Z,11.42
2022-11-08T04:32:26.138Z,11.37
2022-11-08T04:33:26.123Z,11.36
2022-11-08T04:34:26.110Z,11.32
2022-11-08T04:35:26.089Z,11.33
2022-11-08T04:36:26.090Z,11.32
2022-11-08T04:37:26.078Z,11.33
2022-11-08T04:38:26.071Z,11.32
2022-11-08T04:39:26.053Z,11.27
2022-11-08T04:40:26.041Z,11.28
2022-11-08T04:41:26.048Z,11.25
2022-11-08T04:42:26.021Z,11.22
2022-11-08T04:43:26.018Z,11.18
2022-11-08T04:44:26.023Z,11.19
2022-11-08T04:45:25.993Z,11.19
2022-11-08T04:46:25.993Z,11.17
2022-11-08T04:47:25.963Z,11.15
2022-11-08T04:48:25.961Z,11.10
2022-11-08T04:49:25.942Z,11.07
2022-11-08T04:50:25.943Z,11.04
2022-11-08T04:51:25.930Z,11.03
2022-11-08T04:52:25.916Z,11.00
2022-11-08T04:53:25.901Z,10.97
2022-11-08T04:54:25.902Z,10.97
2022-11-08T04:55:25.881Z,10.97
2022-11-08T04:56:25.895Z,11.00
2022-11-08T04:57:25.851Z,10.97
2022-11-08T04:58:25.853Z,11.00
2022-11-08T04:59:25.843Z,11.02
2022-11-08T05:00:25.824Z,11.00
2022-11-08T05:01:25.994Z,11.00
2022-11-08T05:02:25.900Z,11.03
2022-11-08T05:03:25.802Z,11.02
2022-11-08T05:04:25.793Z,11.00
2022-11-08T05:05:25.767Z,11.00
2022-11-08T05:06:25.769Z,11.00
2022-11-08T05:07:25.745Z,11.03
2022-11-08T05:08:25.756Z,11.02
2022-11-08T05:09:25.724Z,11.00
2022-11-08T05:10:25.724Z,10.99
2022-11-08T05:11:25.719Z,11.06
2022-11-08T05:12:25.696Z,11.04
2022-11-08T05:13:25.693Z,11.04
2022-11-08T05:14:25.686Z,11.03
2022-11-08T05:15:25.657Z,11.00
2022-11-08T05:16:25.666Z,10.99
2022-11-08T05:17:25.637Z,10.97
2022-11-08T05:18:25.625Z,10.96
2022-11-08T05:19:25.631Z,10.92
2022-11-08T05:20:25.608Z,10.97
2022-11-08T05:21:25.597Z,11.06
2022-11-08T05:22:25.596Z,11.07
2022-11-08T05:23:25.574Z,11.04
2022-11-08T05:24:25.578Z,11.02
2022-11-08T05:25:25.568Z,11.00
2022-11-08T05:26:25.559Z,10.99
2022-11-08T05:27:25.528Z,10.99
2022-11-08T05:28:25.528Z,10.99
2022-11-08T05:29:25.508Z,10.99
2022-11-08T05:30:25.500Z,10.96
2022-11-08T05:31:25.512Z,10.97
2022-11-08T05:32:25.489Z,10.96
2022-11-08T05:33:25.462Z,10.97
2022-11-08T05:34:25.464Z,10.96
2022-11-08T05:35:25.452Z,11.03
2022-11-08T05:36:25.451Z,10.99
2022-11-08T05:37:25.441Z,10.96
2022-11-08T05:38:25.420Z,10.92
2022-11-08T05:39:28.275Z,10.91
2022-11-08T05:40:30.693Z,10.92
2022-11-08T05:41:26.390Z,10.99
2022-11-08T05:42:25.374Z,10.99
2022-11-08T05:43:25.358Z,10.94
2022-11-08T05:44:25.353Z,10.99
2022-11-08T05:45:25.341Z,10.99
2022-11-08T05:46:25.341Z,10.94
2022-11-08T05:47:25.315Z,10.92
2022-11-08T05:48:25.303Z,10.91
2022-11-08T05:49:25.293Z,10.89
2022-11-08T05:50:25.322Z,10.94
2022-11-08T05:51:25.361Z,10.99
2022-11-08T05:52:25.272Z,10.97
2022-11-08T05:53:25.255Z,10.92
2022-11-08T05:54:25.243Z,10.94
2022-11-08T05:55:25.233Z,10.91
2022-11-08T05:56:25.243Z,10.96
2022-11-08T05:57:25.217Z,11.02
2022-11-08T05:58:25.203Z,11.02
2022-11-08T05:59:25.187Z,10.99
2022-11-08T06:00:25.173Z,11.02
2022-11-08T06:01:25.252Z,10.99
2022-11-08T06:02:25.344Z,10.96
2022-11-08T06:03:25.586Z,10.99
2022-11-08T06:04:25.144Z,11.00
2022-11-08T06:05:25.134Z,10.96
2022-11-08T06:06:25.123Z,10.97
2022-11-08T06:07:25.098Z,10.99
2022-11-08T06:08:25.107Z,11.04
2022-11-08T06:09:25.087Z,11.07
2022-11-08T06:10:25.067Z,11.03
2022-11-08T06:11:25.068Z,11.09
2022-11-08T06:12:25.075Z,11.09
2022-11-08T06:13:25.037Z,11.09
2022-11-08T06:14:25.034Z,11.03
2022-11-08T06:15:25.007Z,11.03
2022-11-08T06:16:25.020Z,11.04
2022-11-08T06:17:26.280Z,11.04
2022-11-08T06:18:24.987Z,11.00
2022-11-08T06:19:24.968Z,10.94
2022-11-08T06:20:24.969Z,10.86
2022-11-08T06:21:24.956Z,10.76
2022-11-08T06:22:24.958Z,10.71
2022-11-08T06:23:24.938Z,10.67
2022-11-08T06:24:24.918Z,10.64
2022-11-08T06:25:24.908Z,10.60
2022-11-08T06:26:24.920Z,10.56
2022-11-08T06:27:24.933Z,10.61
2022-11-08T06:28:24.880Z,10.64
2022-11-08T06:29:25.017Z,10.66
2022-11-08T06:30:24.862Z,10.66
2022-11-08T06:31:25.027Z,10.70
2022-11-08T06:32:24.831Z,10.74
2022-11-08T06:33:24.820Z,10.76
2022-11-08T06:34:24.831Z,10.73
2022-11-08T06:35:24.793Z,10.74
2022-11-08T06:36:24.802Z,10.74
2022-11-08T06:37:24.891Z,10.76
2022-11-08T06:38:24.784Z,10.78
2022-11-08T06:39:24.898Z,10.82
2022-11-08T06:40:24.763Z,10.84
2022-11-08T06:41:24.746Z,10.86
2022-11-08T06:42:24.724Z,10.91
2022-11-08T06:43:25.050Z,10.91
2022-11-08T06:44:24.712Z,10.92
2022-11-08T06:45:24.695Z,10.99
2022-11-08T06:46:24.721Z,11.03
2022-11-08T06:47:25.424Z,11.07
2022-11-08T06:48:24.656Z,11.14
2022-11-08T06:49:24.643Z,11.17
2022-11-08T06:50:24.635Z,11.22
2022-11-08T06:51:24.631Z,11.22
2022-11-08T06:52:24.622Z,11.19
2022-11-08T06:53:24.605Z,11.19
2022-11-08T06:54:27.016Z,11.27
2022-11-08T06:55:24.583Z,11.24
2022-11-08T06:56:24.587Z,11.25
2022-11-08T06:57:24.557Z,11.27
2022-11-08T06:58:24.555Z,11.28
2022-11-08T06:59:24.538Z,11.32
2022-11-08T07:00:24.550Z,11.32
2022-11-08T07:01:24.713Z,11.35
2022-11-08T07:02:24.649Z,11.39
2022-11-08T07:03:24.487Z,11.37
2022-11-08T07:04:24.486Z,11.36
2022-11-08T07:05:24.477Z,11.37
2022-11-08T07:06:24.472Z,11.37
2022-11-08T07:07:24.449Z,11.37
2022-11-08T07:08:24.576Z,11.36
2022-11-08T07:09:24.435Z,11.36
2022-11-08T07:10:24.436Z,11.43
2022-11-08T07:11:24.411Z,11.49
2022-11-08T07:12:24.398Z,11.51
2022-11-08T07:13:24.383Z,11.54
2022-11-08T07:14:24.378Z,11.51
2022-11-08T07:15:24.434Z,11.52
2022-11-08T07:16:24.371Z,11.55
2022-11-08T07:17:24.348Z,11.55
2022-11-08T07:18:24.383Z,11.61
2022-11-08T07:19:24.336Z,11.61
2022-11-08T07:20:24.340Z,11.65
2022-11-08T07:21:24.299Z,11.65
2022-11-08T07:22:24.292Z,11.65
2022-11-08T07:23:24.498Z,11.64
2022-11-08T07:24:24.269Z,11.64
2022-11-08T07:25:24.253Z,11.65
2022-11-08T07:26:24.270Z,11.64
2022-11-08T07:27:24.232Z,11.72
2022-11-08T07:28:24.409Z,11.73
2022-11-08T07:29:24.219Z,11.75
2022-11-08T07:30:24.212Z,11.76
2022-11-08T07:31:24.202Z,11.70
2022-11-08T07:32:24.193Z,11.69
2022-11-08T07:33:24.174Z,11.70
2022-11-08T07:34:24.162Z,11.72
2022-11-08T07:35:24.153Z,11.69
2022-11-08T07:36:24.143Z,11.69
2022-11-08T07:37:24.133Z,11.72
2022-11-08T07:38:24.112Z,11.70
2022-11-08T07:39:24.104Z,11.69
2022-11-08T07:40:24.095Z,11.69
2022-11-08T07:41:24.095Z,11.70
2022-11-08T07:42:24.078Z,11.72
2022-11-08T07:43:24.335Z,11.72
2022-11-08T07:44:24.046Z,11.73
2022-11-08T07:45:24.045Z,11.73
2022-11-08T07:46:24.044Z,11.73
2022-11-08T07:47:24.024Z,11.75
2022-11-08T07:48:24.007Z,11.78
2022-11-08T07:49:24.008Z,11.75
2022-11-08T07:50:24.009Z,11.76
2022-11-08T07:51:24.046Z,11.75
2022-11-08T07:52:23.968Z,11.75
2022-11-08T07:53:23.966Z,11.75
2022-11-08T07:54:23.983Z,11.73
2022-11-08T07:55:23.938Z,11.76
2022-11-08T07:56:23.928Z,11.80
2022-11-08T07:57:23.908Z,11.79
2022-11-08T07:58:23.899Z,11.78
2022-11-08T07:59:23.896Z,11.78
2022-11-08T08:00:23.887Z,11.76
2022-11-08T08:01:24.040Z,11.79
2022-11-08T08:02:23.898Z,11.78
2022-11-08T08:03:24.178Z,11.79
2022-11-08T08:04:23.839Z,11.80
2022-11-08T08:05:23.820Z,11.82
2022-11-08T08:06:23.832Z,11.91
2022-11-08T08:07:23.799Z,11.99
2022-11-08T08:08:23.821Z,12.05
2022-11-08T08:09:23.781Z,12.10
2022-11-08T08:10:23.780Z,12.09
2022-11-08T08:11:23.777Z,12.10
2022-11-08T08:12:23.751Z,12.10
2022-11-08T08:13:23.741Z,12.12
2022-11-08T08:14:23.732Z,12.12
2022-11-08T08:15:23.724Z,12.12
2022-11-08T08:16:23.721Z,12.13
2022-11-08T08:17:23.703Z,12.14
2022-11-08T08:18:23.682Z,12.20
2022-11-08T08:19:23.681Z,12.23
2022-11-08T08:20:23.673Z,12.29
2022-11-08T08:21:23.672Z,12.28
2022-11-08T08:22:23.654Z,12.29
2022-11-08T08:23:23.641Z,12.32
2022-11-08T08:24:23.624Z,12.35
2022-11-08T08:25:23.624Z,12.35
2022-11-08T08:26:23.627Z,12.38
2022-11-08T08:27:23.684Z,12.38
2022-11-08T08:28:23.589Z,12.38
2022-11-08T08:29:23.565Z,12.38
2022-11-08T08:30:23.571Z,12.37
2022-11-08T08:31:23.555Z,12.38
2022-11-08T08:32:24.807Z,12.42
2022-11-08T08:33:30.635Z,12.45
2022-11-08T08:34:24.533Z,12.45
2022-11-08T08:35:23.496Z,12.47
2022-11-08T08:36:23.498Z,12.49
2022-11-08T08:37:23.477Z,12.47
2022-11-08T08:38:23.476Z,12.47
2022-11-08T08:39:23.457Z,12.49
2022-11-08T08:40:23.446Z,12.49
2022-11-08T08:41:23.457Z,12.47
2022-11-08T08:42:23.437Z,12.50
2022-11-08T08:43:23.408Z,12.52
2022-11-08T08:44:23.409Z,12.54
2022-11-08T08:45:23.418Z,12.59
2022-11-08T08:46:23.399Z,12.59
2022-11-08T08:47:23.374Z,12.62
2022-11-08T08:48:23.489Z,12.67
2022-11-08T08:49:23.379Z,12.68
2022-11-08T08:50:23.555Z,12.71
2022-11-08T08:51:23.358Z,12.70
2022-11-08T08:52:23.319Z,12.74
2022-11-08T08:53:23.302Z,12.77
2022-11-08T08:54:28.301Z,12.78
2022-11-08T08:55:24.281Z,12.83
2022-11-08T08:56:23.304Z,12.85
2022-11-08T08:57:23.271Z,12.86
2022-11-08T08:58:23.355Z,12.90
2022-11-08T09:01:39.518Z,12.96
2022-11-08T09:02:24.206Z,13.01
2022-11-08T09:03:23.215Z,13.03
2022-11-08T09:04:23.205Z,13.05
2022-11-08T09:05:23.164Z,13.08
2022-11-08T09:06:23.253Z,13.11
2022-11-08T09:07:23.216Z,13.14
2022-11-08T09:08:23.147Z,13.14
2022-11-08T09:09:23.133Z,13.14
2022-11-08T09:10:23.134Z,13.17
2022-11-08T09:11:23.119Z,13.17
2022-11-08T09:12:23.094Z,13.17
2022-11-08T09:13:23.087Z,13.14
2022-11-08T09:14:23.076Z,13.15
2022-11-08T09:15:23.065Z,13.17
2022-11-08T09:16:23.066Z,13.15
2022-11-08T09:17:23.037Z,13.17
2022-11-08T09:18:23.117Z,13.15
2022-11-08T09:19:23.016Z,13.14
2022-11-08T09:20:23.054Z,13.15
2022-11-08T09:21:23.038Z,13.17
2022-11-08T09:22:22.999Z,13.17
2022-11-08T09:23:22.968Z,13.15
2022-11-08T09:24:22.980Z,13.15
2022-11-08T09:25:22.949Z,13.15
2022-11-08T09:26:23.001Z,13.19
2022-11-08T09:27:22.938Z,13.19
2022-11-08T09:28:26.960Z,13.19
2022-11-08T09:29:23.911Z,13.17
2022-11-08T09:30:22.947Z,13.19
2022-11-08T09:31:22.911Z,13.19
2022-11-08T09:32:33.726Z,13.20
2022-11-08T09:33:23.914Z,13.19
2022-11-08T09:34:22.866Z,13.20
2022-11-08T09:35:22.860Z,13.17
2022-11-08T09:36:22.858Z,13.20
2022-11-08T09:37:22.834Z,13.19
2022-11-08T09:38:22.820Z,13.17
2022-11-08T09:39:22.805Z,13.15
2022-11-08T09:40:22.928Z,13.17
2022-11-08T09:41:22.819Z,13.17
2022-11-08T09:42:22.795Z,13.17
2022-11-08T09:43:22.815Z,13.15
2022-11-08T09:44:22.783Z,13.14
2022-11-08T09:45:22.745Z,13.12
2022-11-08T09:46:22.735Z,13.12
2022-11-08T09:47:22.718Z,13.10
2022-11-08T09:48:22.713Z,13.11
2022-11-08T09:49:22.701Z,13.11
2022-11-08T09:50:22.714Z,13.11
2022-11-08T09:51:22.674Z,13.11
2022-11-08T09:52:22.667Z,13.10
2022-11-08T09:53:22.649Z,13.11
2022-11-08T09:54:22.638Z,13.08
2022-11-08T09:55:22.629Z,13.08
2022-11-08T09:56:22.630Z,13.08
2022-11-08T09:57:22.607Z,13.08
2022-11-08T09:58:22.600Z,13.08
2022-11-08T09:59:22.584Z,13.07
2022-11-08T10:00:22.568Z,13.08
2022-11-08T10:01:26.940Z,13.08
2022-11-08T10:02:22.718Z,13.10
2022-11-08T10:03:22.537Z,13.10
2022-11-08T10:04:22.531Z,13.10
2022-11-08T10:05:22.520Z,13.11
2022-11-08T10:06:22.528Z,13.11
2022-11-08T10:07:22.549Z,13.10
2022-11-08T10:08:22.481Z,13.11
2022-11-08T10:09:22.463Z,13.12
2022-11-08T10:10:22.471Z,13.14
2022-11-08T10:11:22.473Z,13.15
2022-11-08T10:12:22.441Z,13.15
2022-11-08T10:13:22.424Z,13.19
2022-11-08T10:14:22.412Z,13.17
2022-11-08T10:15:22.424Z,13.19
2022-11-08T10:16:22.412Z,13.19
2022-11-08T10:17:22.420Z,13.20
2022-11-08T10:18:22.383Z,13.20
2022-11-08T10:19:22.403Z,13.20
2022-11-08T10:20:22.374Z,13.22
2022-11-08T10:21:22.342Z,13.25
2022-11-08T10:22:22.360Z,13.25
2022-11-08T10:23:22.331Z,13.26
2022-11-08T10:24:22.390Z,13.25
2022-11-08T10:25:22.311Z,13.25
2022-11-08T10:26:26.922Z,13.26
2022-11-08T10:27:23.269Z,13.28
2022-11-08T10:28:22.416Z,13.28
2022-11-08T10:29:22.255Z,13.28
2022-11-08T10:30:22.235Z,13.28
2022-11-08T10:31:22.246Z,13.28
2022-11-08T10:32:22.227Z,13.28
2022-11-08T10:33:22.207Z,13.29
2022-11-08T10:34:22.186Z,13.29
2022-11-08T10:35:22.188Z,13.29
2022-11-08T10:36:22.197Z,13.30
2022-11-08T10:37:22.168Z,13.30
2022-11-08T10:38:22.147Z,13.32
2022-11-08T10:39:22.149Z,13.32
2022-11-08T10:40:22.158Z,13.32
2022-11-08T10:41:22.134Z,13.32
2022-11-08T10:42:22.109Z,13.33
2022-11-08T10:43:22.443Z,13.33
2022-11-08T10:44:22.116Z,13.32
2022-11-08T10:45:22.091Z,13.32
2022-11-08T10:46:22.071Z,13.33
2022-11-08T10:47:22.069Z,13.36
2022-11-08T10:48:22.071Z,13.38
2022-11-08T10:49:22.043Z,13.38
2022-11-08T10:50:22.060Z,13.39
2022-11-08T10:51:22.022Z,13.41
2022-11-08T10:52:22.002Z,13.41
2022-11-08T10:53:21.992Z,13.42
2022-11-08T10:54:21.984Z,13.42
2022-11-08T10:55:21.993Z,13.44
2022-11-08T10:56:21.962Z,13.44
2022-11-08T10:57:21.952Z,13.45
2022-11-08T10:58:21.956Z,13.45
2022-11-08T10:59:21.933Z,13.48
2022-11-08T11:00:21.929Z,13.49
2022-11-08T11:01:22.027Z,13.51
2022-11-08T11:02:21.944Z,13.52
2022-11-08T11:03:21.884Z,13.54
2022-11-08T11:04:21.875Z,13.59
2022-11-08T11:05:21.888Z,13.60
2022-11-08T11:06:21.858Z,13.63
2022-11-08T11:07:21.892Z,13.64
2022-11-08T11:08:22.076Z,13.67
2022-11-08T11:09:21.837Z,13.67
2022-11-08T11:10:21.834Z,13.70
2022-11-08T11:11:21.805Z,13.70
2022-11-08T11:12:21.778Z,13.71
2022-11-08T11:13:21.840Z,13.73
2022-11-08T11:14:22.444Z,13.73
2022-11-08T11:15:21.759Z,13.78
2022-11-08T11:16:21.739Z,13.79
2022-11-08T11:17:21.929Z,13.82
2022-11-08T11:18:21.749Z,13.82
2022-11-08T11:19:21.711Z,13.87
2022-11-08T11:20:21.718Z,13.88
2022-11-08T11:21:21.690Z,13.89
2022-11-08T11:22:21.679Z,13.92
2022-11-08T11:23:21.690Z,13.96
2022-11-08T11:24:21.642Z,13.97
2022-11-08T11:25:21.672Z,13.99
2022-11-08T11:26:21.658Z,14.00
2022-11-08T11:27:21.625Z,14.02
2022-11-08T11:28:21.612Z,14.00
2022-11-08T11:29:21.597Z,14.00
2022-11-08T11:30:21.652Z,14.00
2022-11-08T11:31:21.729Z,13.99
2022-11-08T11:32:21.564Z,14.00
2022-11-08T11:33:21.627Z,13.99
2022-11-08T11:34:21.544Z,13.99
2022-11-08T11:35:21.544Z,14.00
2022-11-08T11:36:21.515Z,13.97
2022-11-08T11:37:21.564Z,13.95
2022-11-08T11:38:21.517Z,13.96
2022-11-08T11:39:21.585Z,13.99
2022-11-08T11:40:21.489Z,13.99
2022-11-08T11:41:21.497Z,14.00
2022-11-08T11:42:44.491Z,14.00
2022-11-08T11:43:22.449Z,14.00
2022-11-08T11:44:21.438Z,14.03
2022-11-08T11:45:21.494Z,14.03
2022-11-08T11:46:21.437Z,14.03
2022-11-08T11:47:21.482Z,14.02
2022-11-08T11:48:21.424Z,14.03
2022-11-08T11:49:21.389Z,14.04
2022-11-08T11:50:21.381Z,14.04
2022-11-08T11:51:21.396Z,14.04
2022-11-08T11:52:21.348Z,14.04
2022-11-08T11:53:21.347Z,14.03
2022-11-08T11:54:21.342Z,14.04
2022-11-08T11:55:21.351Z,14.07
2022-11-08T11:56:21.300Z,14.07
2022-11-08T11:57:21.400Z,14.09
2022-11-08T11:58:21.357Z,14.10
2022-11-08T11:59:21.291Z,14.14
2022-11-08T12:00:21.270Z,14.18
2022-11-08T12:01:21.291Z,14.18
2022-11-08T12:02:21.295Z,14.21
2022-11-08T12:03:21.222Z,14.25
2022-11-08T12:04:21.212Z,14.29
2022-11-08T12:05:21.343Z,14.33
2022-11-08T12:06:21.189Z,14.36
2022-11-08T12:07:21.250Z,14.40
2022-11-08T12:08:21.287Z,14.42
2022-11-08T12:09:21.165Z,14.40
2022-11-08T12:10:21.154Z,14.40
2022-11-08T12:11:21.153Z,14.37
2022-11-08T12:12:21.126Z,14.36
2022-11-08T12:13:21.124Z,14.36
2022-11-08T12:14:21.106Z,14.35
2022-11-08T12:15:21.106Z,14.36
2022-11-08T12:16:21.078Z,14.36
2022-11-08T12:17:21.075Z,14.36
2022-11-08T12:18:41.094Z,14.39
2022-11-08T12:19:22.111Z,14.40
2022-11-08T12:20:26.609Z,14.42
2022-11-08T12:21:22.042Z,14.42
2022-11-08T12:22:21.036Z,14.43
2022-11-08T12:23:21.009Z,14.46
2022-11-08T12:24:21.087Z,14.45
2022-11-08T12:25:20.990Z,14.46
2022-11-08T12:26:20.990Z,14.47
2022-11-08T12:27:20.958Z,14.50
2022-11-08T12:28:21.169Z,14.52
2022-11-08T12:29:20.941Z,14.54
2022-11-08T12:30:20.972Z,14.57
2022-11-08T12:31:20.975Z,14.58
2022-11-08T12:32:20.912Z,14.61
2022-11-08T12:33:20.893Z,14.62
2022-11-08T12:34:20.891Z,14.61
2022-11-08T12:35:20.893Z,14.62
2022-11-08T12:36:20.874Z,14.62
2022-11-08T12:37:20.852Z,14.62
2022-11-08T12:38:21.112Z,14.64
2022-11-08T12:39:23.627Z,14.65
2022-11-08T12:40:20.899Z,14.64
2022-11-08T12:41:20.835Z,14.60
2022-11-08T12:42:20.806Z,14.58
2022-11-08T12:43:20.794Z,14.57
2022-11-08T12:44:20.789Z,14.57
2022-11-08T12:45:20.816Z,14.58
2022-11-08T12:46:20.769Z,14.64
2022-11-08T12:47:20.735Z,14.62
2022-11-08T12:48:20.959Z,14.62
2022-11-08T12:49:20.727Z,14.65
2022-11-08T12:50:20.727Z,14.62
2022-11-08T12:51:20.697Z,14.64
2022-11-08T12:52:20.700Z,14.62
2022-11-08T18:27:21.679Z,16.76
2022-11-08T18:28:21.591Z,16.70